sensor_id;sensor_type;location;lat;lon;timestamp;pressure;altitude;pressure_sealevel;temperature;humidity
54144;BME280;40050;47.324;18.792;2023-07-02T00:00:06;993.98;;;23.69;61.96
54144;BME280;40050;47.324;18.792;2023-07-02T00:02:08;993.92;;;23.66;61.92
54144;BME280;40050;47.324;18.792;2023-07-02T00:04:09;993.83;;;23.63;61.83
54144;BME280;40050;47.324;18.792;2023-07-02T00:06:10;993.93;;;23.69;61.84
54144;BME280;40050;47.324;18.792;2023-07-02T00:08:11;993.83;;;23.58;61.91
54144;BME280;40050;47.324;18.792;2023-07-02T00:10:11;993.82;;;23.54;61.97
54144;BME280;40050;47.324;18.792;2023-07-02T00:12:12;993.96;;;23.64;61.78
54144;BME280;40050;47.324;18.792;2023-07-02T00:14:14;993.99;;;23.65;61.63
54144;BME280;40050;47.324;18.792;2023-07-02T00:16:15;993.96;;;23.63;61.74
54144;BME280;40050;47.324;18.792;2023-07-02T00:18:16;993.95;;;23.66;61.58
54144;BME280;40050;47.324;18.792;2023-07-02T00:20:17;993.92;;;23.61;61.65
54144;BME280;40050;47.324;18.792;2023-07-02T00:22:18;993.88;;;23.62;61.53
54144;BME280;40050;47.324;18.792;2023-07-02T00:24:19;993.89;;;23.60;61.55
54144;BME280;40050;47.324;18.792;2023-07-02T00:26:20;993.93;;;23.62;61.54
54144;BME280;40050;47.324;18.792;2023-07-02T00:28:21;993.94;;;23.63;61.40
54144;BME280;40050;47.324;18.792;2023-07-02T00:30:22;993.97;;;23.60;61.39
54144;BME280;40050;47.324;18.792;2023-07-02T00:32:23;993.97;;;23.59;61.51
54144;BME280;40050;47.324;18.792;2023-07-02T00:34:24;993.96;;;23.58;61.43
54144;BME280;40050;47.324;18.792;2023-07-02T00:36:25;993.96;;;23.58;61.42
54144;BME280;40050;47.324;18.792;2023-07-02T00:38:26;993.90;;;23.58;61.28
54144;BME280;40050;47.324;18.792;2023-07-02T00:40:27;993.94;;;23.57;61.32
54144;BME280;40050;47.324;18.792;2023-07-02T00:42:28;993.91;;;23.51;61.33
54144;BME280;40050;47.324;18.792;2023-07-02T00:44:29;993.92;;;23.47;61.33
54144;BME280;40050;47.324;18.792;2023-07-02T00:46:30;993.88;;;23.44;61.47
54144;BME280;40050;47.324;18.792;2023-07-02T00:48:31;993.88;;;23.43;61.46
54144;BME280;40050;47.324;18.792;2023-07-02T00:50:32;993.87;;;23.46;61.48
54144;BME280;40050;47.324;18.792;2023-07-02T00:52:34;993.87;;;23.43;61.42
54144;BME280;40050;47.324;18.792;2023-07-02T00:54:35;993.72;;;23.33;61.53
54144;BME280;40050;47.324;18.792;2023-07-02T00:56:36;993.87;;;23.41;61.60
54144;BME280;40050;47.324;18.792;2023-07-02T00:58:39;993.85;;;23.41;61.46
54144;BME280;40050;47.324;18.792;2023-07-02T01:00:41;993.92;;;23.41;61.54
54144;BME280;40050;47.324;18.792;2023-07-02T01:02:42;993.91;;;23.40;61.55
54144;BME280;40050;47.324;18.792;2023-07-02T01:04:43;993.90;;;23.38;61.63
54144;BME280;40050;47.324;18.792;2023-07-02T01:06:44;993.87;;;23.36;61.71
54144;BME280;40050;47.324;18.792;2023-07-02T01:08:47;993.89;;;23.36;61.75
54144;BME280;40050;47.324;18.792;2023-07-02T01:10:47;993.68;;;23.20;61.83
54144;BME280;40050;47.324;18.792;2023-07-02T01:12:48;993.92;;;23.38;61.75
54144;BME280;40050;47.324;18.792;2023-07-02T01:14:51;993.90;;;23.35;61.82
54144;BME280;40050;47.324;18.792;2023-07-02T01:16:53;993.93;;;23.38;61.95
54144;BME280;40050;47.324;18.792;2023-07-02T01:18:55;993.91;;;23.39;61.88
54144;BME280;40050;47.324;18.792;2023-07-02T01:20:56;993.89;;;23.38;61.81
54144;BME280;40050;47.324;18.792;2023-07-02T01:22:57;993.93;;;23.40;61.84
54144;BME280;40050;47.324;18.792;2023-07-02T01:24:58;993.82;;;23.33;61.92
54144;BME280;40050;47.324;18.792;2023-07-02T01:26:59;993.95;;;23.40;61.97
54144;BME280;40050;47.324;18.792;2023-07-02T01:29:12;993.88;;;23.39;61.88
54144;BME280;40050;47.324;18.792;2023-07-02T01:31:13;993.68;;;23.25;61.70
54144;BME280;40050;47.324;18.792;2023-07-02T01:33:14;993.95;;;23.41;61.87
54144;BME280;40050;47.324;18.792;2023-07-02T01:35:15;993.94;;;23.39;61.93
54144;BME280;40050;47.324;18.792;2023-07-02T01:37:16;994.00;;;23.41;61.95
54144;BME280;40050;47.324;18.792;2023-07-02T01:39:17;994.01;;;23.43;61.89
54144;BME280;40050;47.324;18.792;2023-07-02T01:41:18;994.01;;;23.41;61.89
54144;BME280;40050;47.324;18.792;2023-07-02T01:43:19;994.03;;;23.44;61.88
54144;BME280;40050;47.324;18.792;2023-07-02T01:45:20;994.01;;;23.42;61.71
54144;BME280;40050;47.324;18.792;2023-07-02T01:47:21;993.96;;;23.40;61.71
54144;BME280;40050;47.324;18.792;2023-07-02T01:49:22;993.99;;;23.42;61.68
54144;BME280;40050;47.324;18.792;2023-07-02T01:51:23;994.01;;;23.43;61.52
54144;BME280;40050;47.324;18.792;2023-07-02T01:53:24;994.00;;;23.46;61.35
54144;BME280;40050;47.324;18.792;2023-07-02T01:55:25;993.98;;;23.43;61.16
54144;BME280;40050;47.324;18.792;2023-07-02T01:57:25;993.98;;;23.43;60.99
54144;BME280;40050;47.324;18.792;2023-07-02T01:59:26;993.95;;;23.39;60.92
54144;BME280;40050;47.324;18.792;2023-07-02T02:01:27;993.93;;;23.40;60.77
54144;BME280;40050;47.324;18.792;2023-07-02T02:03:28;993.90;;;23.37;60.71
54144;BME280;40050;47.324;18.792;2023-07-02T02:05:29;993.93;;;23.36;60.58
54144;BME280;40050;47.324;18.792;2023-07-02T02:07:30;993.92;;;23.36;60.46
54144;BME280;40050;47.324;18.792;2023-07-02T02:09:31;993.89;;;23.35;60.09
54144;BME280;40050;47.324;18.792;2023-07-02T02:11:37;993.93;;;23.37;60.08
54144;BME280;40050;47.324;18.792;2023-07-02T02:13:39;993.91;;;23.38;59.79
54144;BME280;40050;47.324;18.792;2023-07-02T02:15:40;993.86;;;23.32;59.85
54144;BME280;40050;47.324;18.792;2023-07-02T02:17:41;993.85;;;23.31;59.79
54144;BME280;40050;47.324;18.792;2023-07-02T02:19:42;993.80;;;23.26;59.93
54144;BME280;40050;47.324;18.792;2023-07-02T02:21:42;993.85;;;23.27;59.95
54144;BME280;40050;47.324;18.792;2023-07-02T02:23:43;993.82;;;23.27;59.94
54144;BME280;40050;47.324;18.792;2023-07-02T02:25:44;993.81;;;23.30;59.82
54144;BME280;40050;47.324;18.792;2023-07-02T02:27:45;993.68;;;23.17;59.85
54144;BME280;40050;47.324;18.792;2023-07-02T02:29:46;993.79;;;23.23;59.95
54144;BME280;40050;47.324;18.792;2023-07-02T02:31:47;993.51;;;23.00;60.05
54144;BME280;40050;47.324;18.792;2023-07-02T02:33:48;993.60;;;23.05;60.02
54144;BME280;40050;47.324;18.792;2023-07-02T02:35:49;993.79;;;23.13;60.27
54144;BME280;40050;47.324;18.792;2023-07-02T02:37:50;993.79;;;23.13;60.26
54144;BME280;40050;47.324;18.792;2023-07-02T02:39:51;993.76;;;23.12;60.28
54144;BME280;40050;47.324;18.792;2023-07-02T02:41:52;993.74;;;23.12;60.21
54144;BME280;40050;47.324;18.792;2023-07-02T02:43:53;993.79;;;23.10;60.12
54144;BME280;40050;47.324;18.792;2023-07-02T02:45:54;993.64;;;22.96;60.34
54144;BME280;40050;47.324;18.792;2023-07-02T02:47:55;993.74;;;23.01;60.37
54144;BME280;40050;47.324;18.792;2023-07-02T02:49:56;993.78;;;23.02;60.30
54144;BME280;40050;47.324;18.792;2023-07-02T02:51:57;993.79;;;22.98;60.48
54144;BME280;40050;47.324;18.792;2023-07-02T02:53:58;993.83;;;23.00;60.37
54144;BME280;40050;47.324;18.792;2023-07-02T02:55:59;993.83;;;23.00;60.40
54144;BME280;40050;47.324;18.792;2023-07-02T02:57:59;993.85;;;22.97;60.48
54144;BME280;40050;47.324;18.792;2023-07-02T03:00:00;993.88;;;22.94;60.46
54144;BME280;40050;47.324;18.792;2023-07-02T03:02:01;993.86;;;22.91;60.63
54144;BME280;40050;47.324;18.792;2023-07-02T03:04:02;993.88;;;22.93;60.63
54144;BME280;40050;47.324;18.792;2023-07-02T03:06:03;993.94;;;22.95;60.57
54144;BME280;40050;47.324;18.792;2023-07-02T03:08:05;993.86;;;22.89;60.58
54144;BME280;40050;47.324;18.792;2023-07-02T03:10:06;993.85;;;22.86;60.52
54144;BME280;40050;47.324;18.792;2023-07-02T03:12:07;993.90;;;22.89;60.61
54144;BME280;40050;47.324;18.792;2023-07-02T03:14:08;993.84;;;22.87;60.58
54144;BME280;40050;47.324;18.792;2023-07-02T03:16:09;993.91;;;22.92;60.50
54144;BME280;40050;47.324;18.792;2023-07-02T03:18:10;993.91;;;22.95;60.41
54144;BME280;40050;47.324;18.792;2023-07-02T03:20:11;993.93;;;22.93;60.30
54144;BME280;40050;47.324;18.792;2023-07-02T03:22:12;993.93;;;22.93;60.25
54144;BME280;40050;47.324;18.792;2023-07-02T03:24:13;993.97;;;22.88;60.27
54144;BME280;40050;47.324;18.792;2023-07-02T03:26:14;993.81;;;22.80;60.33
54144;BME280;40050;47.324;18.792;2023-07-02T03:28:15;993.96;;;22.88;60.29
54144;BME280;40050;47.324;18.792;2023-07-02T03:30:16;994.00;;;22.87;60.21
54144;BME280;40050;47.324;18.792;2023-07-02T03:32:17;994.00;;;22.85;60.44
54144;BME280;40050;47.324;18.792;2023-07-02T03:34:18;993.77;;;22.66;60.51
54144;BME280;40050;47.324;18.792;2023-07-02T03:36:19;994.02;;;22.79;60.48
54144;BME280;40050;47.324;18.792;2023-07-02T03:38:20;994.14;;;22.84;60.53
54144;BME280;40050;47.324;18.792;2023-07-02T03:40:20;994.13;;;22.86;60.29
54144;BME280;40050;47.324;18.792;2023-07-02T03:42:22;994.07;;;22.86;60.26
54144;BME280;40050;47.324;18.792;2023-07-02T03:44:23;994.06;;;22.82;60.08
54144;BME280;40050;47.324;18.792;2023-07-02T03:46:23;994.04;;;22.84;59.91
54144;BME280;40050;47.324;18.792;2023-07-02T03:48:24;994.02;;;22.84;59.99
54144;BME280;40050;47.324;18.792;2023-07-02T03:50:25;994.08;;;22.84;60.13
54144;BME280;40050;47.324;18.792;2023-07-02T03:52:26;994.05;;;22.86;60.09
54144;BME280;40050;47.324;18.792;2023-07-02T03:54:27;993.86;;;22.73;60.23
54144;BME280;40050;47.324;18.792;2023-07-02T03:56:28;994.13;;;22.91;59.95
54144;BME280;40050;47.324;18.792;2023-07-02T03:58:29;994.12;;;22.88;59.97
54144;BME280;40050;47.324;18.792;2023-07-02T04:00:30;994.13;;;22.91;59.97
54144;BME280;40050;47.324;18.792;2023-07-02T04:02:31;994.16;;;22.92;59.68
54144;BME280;40050;47.324;18.792;2023-07-02T04:04:32;994.17;;;22.92;59.67
54144;BME280;40050;47.324;18.792;2023-07-02T04:06:33;994.19;;;22.93;59.81
54144;BME280;40050;47.324;18.792;2023-07-02T04:08:34;994.22;;;23.00;59.31
54144;BME280;40050;47.324;18.792;2023-07-02T04:10:35;994.25;;;22.97;59.42
54144;BME280;40050;47.324;18.792;2023-07-02T04:12:36;994.28;;;23.00;59.17
54144;BME280;40050;47.324;18.792;2023-07-02T04:14:37;994.28;;;22.96;59.39
54144;BME280;40050;47.324;18.792;2023-07-02T04:16:37;994.27;;;22.99;59.31
54144;BME280;40050;47.324;18.792;2023-07-02T04:18:38;994.30;;;23.00;59.46
54144;BME280;40050;47.324;18.792;2023-07-02T04:20:39;994.33;;;23.00;59.35
54144;BME280;40050;47.324;18.792;2023-07-02T04:22:40;994.34;;;23.03;59.22
54144;BME280;40050;47.324;18.792;2023-07-02T04:24:41;994.37;;;23.08;59.03
54144;BME280;40050;47.324;18.792;2023-07-02T04:26:42;994.40;;;23.09;58.90
54144;BME280;40050;47.324;18.792;2023-07-02T04:28:43;994.41;;;23.13;58.56
54144;BME280;40050;47.324;18.792;2023-07-02T04:30:44;994.42;;;23.12;58.67
54144;BME280;40050;47.324;18.792;2023-07-02T04:32:45;994.46;;;23.18;58.26
54144;BME280;40050;47.324;18.792;2023-07-02T04:34:46;994.50;;;23.18;58.31
54144;BME280;40050;47.324;18.792;2023-07-02T04:36:47;994.52;;;23.22;58.50
54144;BME280;40050;47.324;18.792;2023-07-02T04:38:48;994.50;;;23.28;57.71
54144;BME280;40050;47.324;18.792;2023-07-02T04:40:49;994.33;;;23.15;58.25
54144;BME280;40050;47.324;18.792;2023-07-02T04:42:50;994.47;;;23.28;58.35
54144;BME280;40050;47.324;18.792;2023-07-02T04:44:51;994.52;;;23.35;58.15
54144;BME280;40050;47.324;18.792;2023-07-02T04:46:51;994.51;;;23.35;58.03
54144;BME280;40050;47.324;18.792;2023-07-02T04:48:52;994.51;;;23.38;57.57
54144;BME280;40050;47.324;18.792;2023-07-02T04:50:53;994.54;;;23.40;57.26
54144;BME280;40050;47.324;18.792;2023-07-02T04:52:54;994.61;;;23.46;57.67
54144;BME280;40050;47.324;18.792;2023-07-02T04:54:55;994.63;;;23.53;57.34
54144;BME280;40050;47.324;18.792;2023-07-02T04:56:56;994.68;;;23.53;57.57
54144;BME280;40050;47.324;18.792;2023-07-02T04:58:57;994.71;;;23.55;57.37
54144;BME280;40050;47.324;18.792;2023-07-02T05:00:58;994.66;;;23.58;57.49
54144;BME280;40050;47.324;18.792;2023-07-02T05:02:59;994.75;;;23.63;57.23
54144;BME280;40050;47.324;18.792;2023-07-02T05:05:00;994.75;;;23.73;57.03
54144;BME280;40050;47.324;18.792;2023-07-02T05:07:01;994.72;;;23.71;57.02
54144;BME280;40050;47.324;18.792;2023-07-02T05:09:02;994.72;;;23.75;56.96
54144;BME280;40050;47.324;18.792;2023-07-02T05:11:03;994.43;;;23.57;56.66
54144;BME280;40050;47.324;18.792;2023-07-02T05:13:04;994.78;;;23.84;56.79
54144;BME280;40050;47.324;18.792;2023-07-02T05:15:05;994.80;;;23.94;56.06
54144;BME280;40050;47.324;18.792;2023-07-02T05:17:06;994.76;;;23.92;56.11
54144;BME280;40050;47.324;18.792;2023-07-02T05:19:07;994.78;;;23.97;56.19
54144;BME280;40050;47.324;18.792;2023-07-02T05:21:08;994.79;;;24.04;55.90
54144;BME280;40050;47.324;18.792;2023-07-02T05:23:09;994.84;;;24.08;55.65
54144;BME280;40050;47.324;18.792;2023-07-02T05:25:10;994.85;;;24.10;55.58
54144;BME280;40050;47.324;18.792;2023-07-02T05:27:11;994.79;;;24.13;55.52
54144;BME280;40050;47.324;18.792;2023-07-02T05:29:12;994.86;;;24.27;55.66
54144;BME280;40050;47.324;18.792;2023-07-02T05:31:13;994.85;;;24.35;55.08
54144;BME280;40050;47.324;18.792;2023-07-02T05:33:13;994.90;;;24.38;55.40
54144;BME280;40050;47.324;18.792;2023-07-02T05:35:14;994.94;;;24.42;55.27
54144;BME280;40050;47.324;18.792;2023-07-02T05:37:15;994.86;;;24.50;55.03
54144;BME280;40050;47.324;18.792;2023-07-02T05:39:16;994.89;;;24.55;55.08
54144;BME280;40050;47.324;18.792;2023-07-02T05:41:18;994.82;;;24.64;54.59
54144;BME280;40050;47.324;18.792;2023-07-02T05:43:19;994.79;;;24.66;54.12
54144;BME280;40050;47.324;18.792;2023-07-02T05:45:20;994.84;;;24.68;54.25
54144;BME280;40050;47.324;18.792;2023-07-02T05:47:20;994.90;;;24.78;54.17
54144;BME280;40050;47.324;18.792;2023-07-02T05:49:21;994.92;;;24.81;53.44
54144;BME280;40050;47.324;18.792;2023-07-02T05:51:23;994.96;;;24.85;53.46
54144;BME280;40050;47.324;18.792;2023-07-02T05:53:24;994.91;;;24.88;53.14
54144;BME280;40050;47.324;18.792;2023-07-02T05:55:25;995.00;;;24.94;52.69
54144;BME280;40050;47.324;18.792;2023-07-02T05:57:26;994.97;;;24.91;53.04
54144;BME280;40050;47.324;18.792;2023-07-02T05:59:27;995.00;;;24.99;52.99
54144;BME280;40050;47.324;18.792;2023-07-02T06:01:28;995.00;;;25.05;53.39
54144;BME280;40050;47.324;18.792;2023-07-02T06:03:29;994.98;;;25.16;52.89
54144;BME280;40050;47.324;18.792;2023-07-02T06:05:30;995.05;;;25.20;52.82
54144;BME280;40050;47.324;18.792;2023-07-02T06:07:30;994.96;;;25.26;52.91
54144;BME280;40050;47.324;18.792;2023-07-02T06:09:31;994.86;;;25.23;52.93
54144;BME280;40050;47.324;18.792;2023-07-02T06:11:32;995.03;;;25.40;52.67
54144;BME280;40050;47.324;18.792;2023-07-02T06:13:36;995.05;;;25.53;52.53
54144;BME280;40050;47.324;18.792;2023-07-02T06:15:37;994.98;;;25.57;52.29
54144;BME280;40050;47.324;18.792;2023-07-02T06:17:38;995.00;;;25.72;51.90
54144;BME280;40050;47.324;18.792;2023-07-02T06:19:39;994.84;;;25.72;51.40
54144;BME280;40050;47.324;18.792;2023-07-02T06:21:40;995.00;;;25.91;51.01
54144;BME280;40050;47.324;18.792;2023-07-02T06:23:44;995.04;;;25.98;51.15
54144;BME280;40050;47.324;18.792;2023-07-02T06:25:45;995.04;;;26.11;51.12
54144;BME280;40050;47.324;18.792;2023-07-02T06:27:46;995.06;;;26.19;51.00
54144;BME280;40050;47.324;18.792;2023-07-02T06:29:47;995.03;;;26.32;50.74
54144;BME280;40050;47.324;18.792;2023-07-02T06:31:48;995.05;;;26.42;49.98
54144;BME280;40050;47.324;18.792;2023-07-02T06:33:49;995.06;;;26.42;49.80
54144;BME280;40050;47.324;18.792;2023-07-02T06:35:50;995.07;;;26.50;49.93
54144;BME280;40050;47.324;18.792;2023-07-02T06:37:51;995.09;;;26.62;49.83
54144;BME280;40050;47.324;18.792;2023-07-02T06:39:52;995.16;;;26.70;50.02
54144;BME280;40050;47.324;18.792;2023-07-02T06:41:53;995.19;;;26.76;49.85
54144;BME280;40050;47.324;18.792;2023-07-02T06:43:54;995.12;;;26.90;50.32
54144;BME280;40050;47.324;18.792;2023-07-02T06:45:58;995.16;;;26.94;48.31
54144;BME280;40050;47.324;18.792;2023-07-02T06:47:59;995.18;;;26.97;48.38
54144;BME280;40050;47.324;18.792;2023-07-02T06:50:00;995.13;;;26.97;48.41
54144;BME280;40050;47.324;18.792;2023-07-02T06:52:01;995.13;;;27.01;48.34
54144;BME280;40050;47.324;18.792;2023-07-02T06:54:02;995.23;;;27.15;48.48
54144;BME280;40050;47.324;18.792;2023-07-02T06:56:03;995.22;;;27.28;47.30
54144;BME280;40050;47.324;18.792;2023-07-02T06:58:05;995.32;;;27.36;46.99
54144;BME280;40050;47.324;18.792;2023-07-02T07:00:06;995.32;;;27.44;45.83
54144;BME280;40050;47.324;18.792;2023-07-02T07:02:08;995.30;;;27.37;45.95
54144;BME280;40050;47.324;18.792;2023-07-02T07:04:09;995.39;;;27.42;45.51
54144;BME280;40050;47.324;18.792;2023-07-02T07:06:10;995.14;;;27.28;45.73
54144;BME280;40050;47.324;18.792;2023-07-02T07:08:11;995.36;;;27.49;46.40
54144;BME280;40050;47.324;18.792;2023-07-02T07:10:13;995.38;;;27.62;45.83
54144;BME280;40050;47.324;18.792;2023-07-02T07:12:14;995.33;;;27.70;46.35
54144;BME280;40050;47.324;18.792;2023-07-02T07:14:16;995.33;;;27.84;46.12
54144;BME280;40050;47.324;18.792;2023-07-02T07:16:17;995.34;;;27.95;46.14
54144;BME280;40050;47.324;18.792;2023-07-02T07:18:18;995.41;;;28.08;46.04
54144;BME280;40050;47.324;18.792;2023-07-02T07:20:19;995.34;;;28.26;45.75
54144;BME280;40050;47.324;18.792;2023-07-02T07:22:22;995.46;;;28.45;45.23
54144;BME280;40050;47.324;18.792;2023-07-02T07:24:23;995.48;;;28.56;44.95
54144;BME280;40050;47.324;18.792;2023-07-02T07:26:24;995.49;;;28.68;44.51
54144;BME280;40050;47.324;18.792;2023-07-02T07:28:25;995.39;;;28.79;44.06
54144;BME280;40050;47.324;18.792;2023-07-02T07:30:26;995.43;;;28.94;44.09
54144;BME280;40050;47.324;18.792;2023-07-02T07:32:27;995.50;;;29.10;43.61
54144;BME280;40050;47.324;18.792;2023-07-02T07:34:28;995.47;;;29.28;42.63
54144;BME280;40050;47.324;18.792;2023-07-02T07:36:29;995.45;;;29.42;42.91
54144;BME280;40050;47.324;18.792;2023-07-02T07:38:34;995.49;;;29.51;42.85
54144;BME280;40050;47.324;18.792;2023-07-02T07:40:37;995.50;;;29.63;42.82
54144;BME280;40050;47.324;18.792;2023-07-02T07:42:38;995.51;;;29.65;42.02
54144;BME280;40050;47.324;18.792;2023-07-02T07:44:39;995.53;;;29.59;41.47
54144;BME280;40050;47.324;18.792;2023-07-02T07:46:40;995.60;;;29.61;41.61
54144;BME280;40050;47.324;18.792;2023-07-02T07:48:41;995.57;;;29.53;42.25
54144;BME280;40050;47.324;18.792;2023-07-02T07:50:42;995.59;;;29.48;41.98
54144;BME280;40050;47.324;18.792;2023-07-02T07:52:43;995.65;;;29.45;41.84
54144;BME280;40050;47.324;18.792;2023-07-02T07:54:44;995.68;;;29.41;42.22
54144;BME280;40050;47.324;18.792;2023-07-02T07:56:45;995.70;;;29.32;41.80
54144;BME280;40050;47.324;18.792;2023-07-02T07:58:46;995.72;;;29.27;41.41
54144;BME280;40050;47.324;18.792;2023-07-02T08:00:47;995.76;;;29.19;42.37
54144;BME280;40050;47.324;18.792;2023-07-02T08:02:48;995.78;;;29.09;42.38
54144;BME280;40050;47.324;18.792;2023-07-02T08:04:48;995.81;;;29.07;42.14
54144;BME280;40050;47.324;18.792;2023-07-02T08:06:49;995.81;;;28.98;42.29
54144;BME280;40050;47.324;18.792;2023-07-02T08:08:50;995.80;;;28.90;42.84
54144;BME280;40050;47.324;18.792;2023-07-02T08:10:51;995.86;;;28.81;42.84
54144;BME280;40050;47.324;18.792;2023-07-02T08:12:52;995.90;;;28.79;43.10
54144;BME280;40050;47.324;18.792;2023-07-02T08:14:53;995.87;;;28.73;43.21
54144;BME280;40050;47.324;18.792;2023-07-02T08:16:54;995.87;;;28.71;42.74
54144;BME280;40050;47.324;18.792;2023-07-02T08:18:55;995.86;;;28.72;42.60
54144;BME280;40050;47.324;18.792;2023-07-02T08:20:56;995.90;;;28.68;42.07
54144;BME280;40050;47.324;18.792;2023-07-02T08:22:57;995.94;;;28.68;42.49
54144;BME280;40050;47.324;18.792;2023-07-02T08:24:58;995.93;;;28.66;42.06
54144;BME280;40050;47.324;18.792;2023-07-02T08:26:59;995.96;;;28.63;42.40
54144;BME280;40050;47.324;18.792;2023-07-02T08:29:00;995.89;;;28.62;42.63
54144;BME280;40050;47.324;18.792;2023-07-02T08:31:01;995.68;;;28.54;42.76
54144;BME280;40050;47.324;18.792;2023-07-02T08:33:02;995.93;;;28.80;42.62
54144;BME280;40050;47.324;18.792;2023-07-02T08:35:03;995.93;;;28.88;43.28
54144;BME280;40050;47.324;18.792;2023-07-02T08:37:04;995.93;;;29.08;42.74
54144;BME280;40050;47.324;18.792;2023-07-02T08:39:05;995.91;;;29.18;43.07
54144;BME280;40050;47.324;18.792;2023-07-02T08:41:06;995.92;;;29.32;42.78
54144;BME280;40050;47.324;18.792;2023-07-02T08:43:07;995.87;;;29.42;42.45
54144;BME280;40050;47.324;18.792;2023-07-02T08:45:08;995.85;;;29.58;42.17
54144;BME280;40050;47.324;18.792;2023-07-02T08:47:10;995.90;;;29.73;42.36
54144;BME280;40050;47.324;18.792;2023-07-02T08:49:11;995.95;;;29.87;41.86
54144;BME280;40050;47.324;18.792;2023-07-02T08:51:12;995.94;;;29.97;41.08
54144;BME280;40050;47.324;18.792;2023-07-02T08:53:13;995.94;;;30.12;40.79
54144;BME280;40050;47.324;18.792;2023-07-02T08:55:14;995.91;;;30.24;40.70
54144;BME280;40050;47.324;18.792;2023-07-02T08:57:15;995.98;;;30.46;39.87
54144;BME280;40050;47.324;18.792;2023-07-02T08:59:16;995.92;;;30.62;39.74
54144;BME280;40050;47.324;18.792;2023-07-02T09:01:17;995.92;;;30.77;39.02
54144;BME280;40050;47.324;18.792;2023-07-02T09:03:18;995.90;;;30.98;39.23
54144;BME280;40050;47.324;18.792;2023-07-02T09:05:19;995.95;;;31.17;39.25
54144;BME280;40050;47.324;18.792;2023-07-02T09:07:20;995.90;;;31.35;38.00
54144;BME280;40050;47.324;18.792;2023-07-02T09:09:21;995.88;;;31.46;37.96
54144;BME280;40050;47.324;18.792;2023-07-02T09:11:22;995.88;;;31.60;37.93
54144;BME280;40050;47.324;18.792;2023-07-02T09:13:23;995.86;;;31.68;37.56
54144;BME280;40050;47.324;18.792;2023-07-02T09:15:24;995.91;;;31.78;38.05
54144;BME280;40050;47.324;18.792;2023-07-02T09:17:28;995.86;;;31.76;37.72
54144;BME280;40050;47.324;18.792;2023-07-02T09:19:29;995.95;;;31.83;37.29
54144;BME280;40050;47.324;18.792;2023-07-02T09:21:46;995.95;;;31.86;37.38
54144;BME280;40050;47.324;18.792;2023-07-02T09:23:47;995.96;;;31.87;37.30
54144;BME280;40050;47.324;18.792;2023-07-02T09:25:48;995.95;;;31.92;37.38
54144;BME280;40050;47.324;18.792;2023-07-02T09:27:49;995.98;;;31.90;37.76
54144;BME280;40050;47.324;18.792;2023-07-02T09:29:51;995.94;;;31.94;37.21
54144;BME280;40050;47.324;18.792;2023-07-02T09:31:52;995.98;;;32.00;37.00
54144;BME280;40050;47.324;18.792;2023-07-02T09:34:00;995.96;;;32.05;36.75
54144;BME280;40050;47.324;18.792;2023-07-02T09:36:01;995.93;;;32.12;36.62
54144;BME280;40050;47.324;18.792;2023-07-02T09:40:03;996.08;;;32.25;36.12
54144;BME280;40050;47.324;18.792;2023-07-02T09:42:07;996.04;;;32.31;35.32
54144;BME280;40050;47.324;18.792;2023-07-02T09:44:09;996.02;;;32.30;35.39
54144;BME280;40050;47.324;18.792;2023-07-02T09:46:10;995.99;;;32.37;35.25
54144;BME280;40050;47.324;18.792;2023-07-02T09:48:15;995.99;;;32.39;35.02
54144;BME280;40050;47.324;18.792;2023-07-02T09:50:16;995.96;;;32.43;34.56
54144;BME280;40050;47.324;18.792;2023-07-02T09:52:18;996.07;;;32.39;34.46
54144;BME280;40050;47.324;18.792;2023-07-02T09:54:19;996.09;;;32.37;34.56
54144;BME280;40050;47.324;18.792;2023-07-02T09:56:20;996.10;;;32.30;34.92
54144;BME280;40050;47.324;18.792;2023-07-02T09:58:21;996.04;;;32.29;35.28
54144;BME280;40050;47.324;18.792;2023-07-02T10:00:22;996.08;;;32.41;35.62
54144;BME280;40050;47.324;18.792;2023-07-02T10:02:23;995.94;;;32.37;35.35
54144;BME280;40050;47.324;18.792;2023-07-02T10:04:24;995.96;;;32.45;35.97
54144;BME280;40050;47.324;18.792;2023-07-02T10:06:25;996.08;;;32.63;36.44
54144;BME280;40050;47.324;18.792;2023-07-02T10:08:26;996.02;;;32.67;34.82
54144;BME280;40050;47.324;18.792;2023-07-02T10:10:30;996.01;;;32.68;35.61
54144;BME280;40050;47.324;18.792;2023-07-02T10:12:32;996.02;;;32.73;35.48
54144;BME280;40050;47.324;18.792;2023-07-02T10:14:42;996.05;;;32.77;35.06
54144;BME280;40050;47.324;18.792;2023-07-02T10:16:52;996.03;;;32.67;34.38
54144;BME280;40050;47.324;18.792;2023-07-02T10:18:53;995.99;;;32.60;34.69
54144;BME280;40050;47.324;18.792;2023-07-02T10:20:54;996.09;;;32.58;35.21
54144;BME280;40050;47.324;18.792;2023-07-02T10:22:55;996.02;;;32.61;35.86
54144;BME280;40050;47.324;18.792;2023-07-02T10:24:57;995.97;;;32.60;35.58
54144;BME280;40050;47.324;18.792;2023-07-02T10:26:59;995.98;;;32.70;35.20
54144;BME280;40050;47.324;18.792;2023-07-02T10:29:00;996.00;;;32.64;35.58
54144;BME280;40050;47.324;18.792;2023-07-02T10:31:01;995.98;;;32.62;35.45
54144;BME280;40050;47.324;18.792;2023-07-02T10:33:12;996.03;;;32.70;34.62
54144;BME280;40050;47.324;18.792;2023-07-02T10:35:16;996.00;;;32.68;34.13
54144;BME280;40050;47.324;18.792;2023-07-02T10:37:17;995.96;;;32.59;34.15
54144;BME280;40050;47.324;18.792;2023-07-02T10:39:18;995.90;;;32.62;34.51
54144;BME280;40050;47.324;18.792;2023-07-02T10:41:23;995.94;;;32.66;35.11
54144;BME280;40050;47.324;18.792;2023-07-02T10:43:27;995.90;;;32.65;35.52
54144;BME280;40050;47.324;18.792;2023-07-02T10:45:32;995.91;;;32.69;36.07
54144;BME280;40050;47.324;18.792;2023-07-02T10:47:33;995.99;;;32.70;35.41
54144;BME280;40050;47.324;18.792;2023-07-02T10:49:34;995.87;;;32.72;35.28
54144;BME280;40050;47.324;18.792;2023-07-02T10:51:35;995.89;;;32.69;35.76